createdAt,value
2018-09-05T00:00:45.761Z,17.43
2018-09-05T00:03:14.582Z,17.39
2018-09-05T00:05:43.055Z,17.42
2018-09-05T00:08:12.010Z,17.40
2018-09-05T00:10:40.944Z,17.37
2018-09-05T00:13:09.642Z,17.31
2018-09-05T00:15:38.212Z,17.29
2018-09-05T00:18:07.923Z,17.27
2018-09-05T00:20:36.482Z,17.17
2018-09-05T00:23:04.901Z,17.03
2018-09-05T00:25:33.552Z,17.02
2018-09-05T00:28:02.397Z,16.99
2018-09-05T00:30:30.934Z,17.02
2018-09-05T00:32:59.454Z,17.00
2018-09-05T00:35:28.229Z,16.94
2018-09-05T00:37:57.093Z,16.88
2018-09-05T00:40:25.892Z,16.76
2018-09-05T00:42:54.358Z,16.71
2018-09-05T00:45:22.882Z,16.71
2018-09-05T00:47:51.430Z,16.71
2018-09-05T00:50:19.823Z,16.63
2018-09-05T00:52:48.587Z,16.61
2018-09-05T00:55:17.337Z,16.56
2018-09-05T00:57:45.805Z,16.51
2018-09-05T01:00:14.425Z,16.41
2018-09-05T01:02:42.881Z,16.47
2018-09-05T01:05:11.784Z,16.44
2018-09-05T01:07:40.443Z,16.40
2018-09-05T01:10:08.868Z,16.35
2018-09-05T01:12:37.406Z,16.32
2018-09-05T01:15:06.512Z,16.23
2018-09-05T01:17:34.834Z,16.17
2018-09-05T01:20:03.298Z,16.22
2018-09-05T01:22:32.026Z,16.19
2018-09-05T01:25:00.619Z,16.10
2018-09-05T01:27:29.191Z,16.05
2018-09-05T01:29:58.182Z,16.00
2018-09-05T01:32:26.620Z,15.92
2018-09-05T01:34:55.818Z,15.92
2018-09-05T01:37:24.791Z,15.95
2018-09-05T01:39:53.200Z,15.92
2018-09-05T01:42:21.617Z,15.94
2018-09-05T01:44:50.527Z,15.89
2018-09-05T01:47:19.275Z,15.77
2018-09-05T01:49:47.920Z,15.74
2018-09-05T01:52:16.808Z,15.68
2018-09-05T01:54:45.615Z,15.65
2018-09-05T01:57:14.066Z,15.60
2018-09-05T01:59:42.457Z,15.56
2018-09-05T02:02:11.203Z,15.52
2018-09-05T02:04:39.674Z,15.49
2018-09-05T02:07:08.316Z,15.45
2018-09-05T02:09:36.692Z,15.42
2018-09-05T02:12:05.259Z,15.41
2018-09-05T02:14:33.652Z,15.36
2018-09-05T02:17:02.340Z,15.32
2018-09-05T02:19:31.107Z,15.32
2018-09-05T02:21:59.666Z,15.27
2018-09-05T02:24:28.146Z,15.27
2018-09-05T02:26:56.549Z,15.23
2018-09-05T02:29:25.069Z,15.19
2018-09-05T02:31:53.596Z,15.17
2018-09-05T02:34:22.159Z,15.15
2018-09-05T02:36:50.783Z,15.22
2018-09-05T02:39:19.452Z,15.15
2018-09-05T02:41:48.155Z,15.09
2018-09-05T02:44:21.264Z,15.07
2018-09-05T02:46:49.956Z,15.07
2018-09-05T02:49:18.513Z,15.01
2018-09-05T02:51:47.286Z,14.99
2018-09-05T02:54:15.998Z,14.93
2018-09-05T02:56:44.459Z,14.88
2018-09-05T02:59:13.112Z,14.88
2018-09-05T03:01:41.813Z,14.85
2018-09-05T03:04:10.364Z,14.83
2018-09-05T03:06:39.439Z,14.77
2018-09-05T03:09:08.951Z,14.72
2018-09-05T03:11:37.515Z,14.73
2018-09-05T03:14:06.286Z,14.71
2018-09-05T03:16:35.015Z,14.70
2018-09-05T03:19:04.110Z,14.63
2018-09-05T03:21:32.730Z,14.60
2018-09-05T03:24:01.705Z,14.54
2018-09-05T03:26:30.311Z,14.52
2018-09-05T03:28:58.704Z,14.55
2018-09-05T03:31:27.200Z,14.55
2018-09-05T03:33:55.616Z,14.56
2018-09-05T03:36:24.576Z,14.57
2018-09-05T03:38:53.002Z,14.55
2018-09-05T03:41:21.478Z,14.54
2018-09-05T03:43:50.298Z,14.58
2018-09-05T03:46:18.716Z,14.58
2018-09-05T03:48:47.109Z,14.60
2018-09-05T03:51:15.838Z,14.62
2018-09-05T03:53:44.248Z,14.65
2018-09-05T03:56:13.015Z,14.62
2018-09-05T03:58:42.007Z,14.59
2018-09-05T04:01:10.807Z,14.59
2018-09-05T04:03:39.303Z,14.56
2018-09-05T04:06:07.786Z,14.61
2018-09-05T04:08:36.209Z,14.58
2018-09-05T04:11:04.704Z,14.55
2018-09-05T04:13:34.052Z,14.52
2018-09-05T04:16:05.777Z,14.54
2018-09-05T04:18:34.667Z,14.60
2018-09-05T04:21:03.418Z,14.56
2018-09-05T04:23:50.288Z,14.55
2018-09-05T04:26:19.658Z,14.46
2018-09-05T04:28:48.268Z,14.42
2018-09-05T04:31:16.944Z,14.42
2018-09-05T04:33:45.819Z,14.47
2018-09-05T04:36:15.435Z,14.41
2018-09-05T04:38:45.501Z,14.40
2018-09-05T04:41:13.943Z,14.38
2018-09-05T04:43:42.392Z,14.42
2018-09-05T04:46:11.336Z,14.43
2018-09-05T04:48:39.892Z,14.43
2018-09-05T04:51:08.322Z,14.37
2018-09-05T04:53:37.149Z,14.40
2018-09-05T04:56:05.926Z,14.41
2018-09-05T04:58:34.422Z,14.36
2018-09-05T05:01:02.855Z,14.28
2018-09-05T05:03:31.441Z,14.25
2018-09-05T05:06:00.017Z,14.23
2018-09-05T05:08:28.451Z,14.24
2018-09-05T05:10:56.848Z,14.17
2018-09-05T05:13:25.220Z,14.18
2018-09-05T05:15:53.950Z,14.22
2018-09-05T05:18:22.296Z,14.17
2018-09-05T05:20:50.906Z,14.08
2018-09-05T05:23:19.316Z,13.96
2018-09-05T05:25:47.740Z,13.96
2018-09-05T05:28:16.159Z,13.91
2018-09-05T05:30:44.525Z,13.98
2018-09-05T05:33:12.988Z,13.92
2018-09-05T05:35:41.412Z,13.96
2018-09-05T05:38:10.017Z,14.01
2018-09-05T05:40:38.412Z,14.00
2018-09-05T05:43:07.236Z,14.02
2018-09-05T05:45:35.771Z,13.99
2018-09-05T05:48:04.279Z,13.95
2018-09-05T05:50:32.959Z,13.94
2018-09-05T05:53:01.395Z,13.99
2018-09-05T05:55:29.940Z,14.01
2018-09-05T05:57:58.336Z,14.07
2018-09-05T06:00:27.089Z,14.18
2018-09-05T06:02:56.405Z,14.10
2018-09-05T06:05:24.879Z,14.11
2018-09-05T06:07:53.277Z,14.17
2018-09-05T06:10:24.987Z,14.16
2018-09-05T06:12:55.271Z,14.15
2018-09-05T06:15:24.192Z,14.22
2018-09-05T06:17:52.901Z,14.16
2018-09-05T06:20:21.268Z,14.21
2018-09-05T06:22:50.040Z,14.29
2018-09-05T06:25:18.498Z,14.30
2018-09-05T06:27:46.924Z,14.24
2018-09-05T06:30:15.514Z,14.26
2018-09-05T06:32:43.988Z,14.22
2018-09-05T06:35:12.492Z,14.29
2018-09-05T06:37:41.196Z,14.37
2018-09-05T06:40:09.629Z,14.37
2018-09-05T06:42:38.036Z,14.48
2018-09-05T06:45:06.737Z,14.51
2018-09-05T06:47:35.381Z,14.57
2018-09-05T06:50:04.166Z,14.66
2018-09-05T06:52:32.548Z,14.66
2018-09-05T06:55:00.953Z,14.55
2018-09-05T06:57:29.419Z,14.65
2018-09-05T06:59:57.942Z,14.56
2018-09-05T07:02:27.345Z,14.45
2018-09-05T07:04:55.790Z,14.53
2018-09-05T07:07:24.405Z,14.56
2018-09-05T07:09:52.845Z,14.52
2018-09-05T07:12:21.251Z,14.57
2018-09-05T07:14:49.884Z,14.55
2018-09-05T07:17:18.460Z,14.64
2018-09-05T07:19:46.915Z,14.69
2018-09-05T07:22:15.249Z,14.70
2018-09-05T07:24:43.700Z,14.84
2018-09-05T07:27:12.169Z,15.00
2018-09-05T07:29:41.083Z,15.18
2018-09-05T07:32:09.527Z,15.31
2018-09-05T07:34:38.021Z,15.29
2018-09-05T07:37:06.459Z,15.23
2018-09-05T07:39:35.097Z,15.30
2018-09-05T07:42:03.555Z,15.48
2018-09-05T07:44:32.168Z,15.49
2018-09-05T07:47:00.892Z,15.62
2018-09-05T07:49:29.507Z,15.57
2018-09-05T07:51:57.880Z,15.68
2018-09-05T07:54:26.320Z,15.98
2018-09-05T07:56:55.107Z,16.14
2018-09-05T07:59:23.588Z,16.23
2018-09-05T08:01:52.504Z,16.07
2018-09-05T08:04:21.381Z,16.03
2018-09-05T08:06:49.939Z,16.23
2018-09-05T08:09:18.445Z,16.19
2018-09-05T08:11:46.814Z,16.69
2018-09-05T08:14:15.259Z,17.04
2018-09-05T08:16:43.756Z,17.06
2018-09-05T08:19:12.361Z,16.98
2018-09-05T08:21:40.722Z,16.55
2018-09-05T08:24:09.429Z,16.62
2018-09-05T08:26:37.974Z,16.42
2018-09-05T08:29:06.449Z,16.42
2018-09-05T08:31:34.798Z,16.54
2018-09-05T08:34:03.242Z,16.48
2018-09-05T08:36:32.262Z,16.44
2018-09-05T08:39:00.635Z,16.67
2018-09-05T08:41:29.083Z,17.04
2018-09-05T08:43:57.767Z,17.24
2018-09-05T08:46:26.096Z,17.61
2018-09-05T08:48:54.479Z,17.92
2018-09-05T08:51:22.859Z,18.02
2018-09-05T08:53:51.512Z,17.83
2018-09-05T08:56:20.027Z,17.69
2018-09-05T08:58:48.357Z,17.54
2018-09-05T09:01:16.766Z,17.40
2018-09-05T09:03:45.465Z,17.58
2018-09-05T09:06:13.888Z,17.65
2018-09-05T09:08:42.351Z,17.79
2018-09-05T09:11:10.821Z,17.73
2018-09-05T09:13:39.248Z,17.46
2018-09-05T09:16:07.872Z,17.44
2018-09-05T09:18:36.354Z,17.43
2018-09-05T09:21:04.795Z,17.91
2018-09-05T09:23:33.252Z,18.07
2018-09-05T09:26:01.933Z,18.39
2018-09-05T09:29:04.446Z,18.51
2018-09-05T09:31:33.062Z,18.60
2018-09-05T09:34:01.426Z,18.74
2018-09-05T09:36:29.779Z,18.78
2018-09-05T09:38:58.242Z,18.99
2018-09-05T09:41:26.670Z,18.99
2018-09-05T09:43:55.140Z,19.07
2018-09-05T09:46:23.492Z,18.97
2018-09-05T09:48:52.104Z,19.29
2018-09-05T09:51:22.664Z,19.53
2018-09-05T09:53:51.992Z,19.48
2018-09-05T09:56:20.427Z,19.77
2018-09-05T09:58:48.784Z,19.67
2018-09-05T10:01:22.408Z,19.48
2018-09-05T10:03:56.376Z,19.40
2018-09-05T10:06:30.087Z,19.77
2018-09-05T10:09:03.856Z,20.00
2018-09-05T10:11:37.557Z,19.90
2018-09-05T10:14:16.095Z,19.97
2018-09-05T10:16:49.815Z,20.29
2018-09-05T10:19:18.637Z,20.13
2018-09-05T10:21:47.615Z,20.40
2018-09-05T10:24:16.303Z,20.45
2018-09-05T10:26:44.723Z,20.56
2018-09-05T10:29:13.251Z,20.24
2018-09-05T10:31:42.429Z,20.65
2018-09-05T10:34:10.814Z,20.57
2018-09-05T10:36:39.260Z,20.78
2018-09-05T10:39:09.812Z,20.80
2018-09-05T10:41:38.392Z,20.95
2018-09-05T10:44:07.052Z,20.76
2018-09-05T10:46:35.940Z,20.86
2018-09-05T10:49:04.615Z,20.79
2018-09-05T10:51:38.404Z,21.00
2018-09-05T10:54:06.871Z,21.09
2018-09-05T10:56:35.307Z,21.11
2018-09-05T10:59:03.709Z,21.33
2018-09-05T11:01:32.329Z,20.86
2018-09-05T11:04:00.932Z,21.00
2018-09-05T11:06:29.356Z,21.23
2018-09-05T11:08:57.840Z,21.37
2018-09-05T11:11:26.200Z,21.58
2018-09-05T11:13:54.667Z,21.48
2018-09-05T11:16:23.498Z,21.72
2018-09-05T11:18:51.910Z,21.71
2018-09-05T11:21:20.647Z,21.57
2018-09-05T11:23:49.345Z,21.57
2018-09-05T11:26:17.732Z,21.88
2018-09-05T11:28:46.165Z,22.10
2018-09-05T11:31:14.745Z,21.80
2018-09-05T11:33:43.372Z,21.73
2018-09-05T11:36:11.885Z,21.69
2018-09-05T11:38:40.560Z,21.96
2018-09-05T11:41:09.232Z,22.20
2018-09-05T11:43:38.172Z,22.24
2018-09-05T11:46:06.832Z,22.39
2018-09-05T11:48:35.297Z,22.56
2018-09-05T11:51:03.958Z,22.14
2018-09-05T11:53:32.589Z,22.35
2018-09-05T11:56:01.037Z,22.41
2018-09-05T11:58:29.841Z,22.66
2018-09-05T12:00:58.359Z,22.83
2018-09-05T12:03:27.009Z,23.02
2018-09-05T12:05:55.907Z,23.06
2018-09-05T12:08:24.392Z,23.05
2018-09-05T12:10:52.921Z,23.10
2018-09-05T12:13:21.431Z,23.18
2018-09-05T12:15:49.937Z,23.06
2018-09-05T12:18:18.482Z,23.27
2018-09-05T12:20:46.927Z,23.28
2018-09-05T12:23:15.950Z,23.32
2018-09-05T12:25:44.345Z,23.45
2018-09-05T12:28:13.114Z,23.18
2018-09-05T12:30:41.981Z,23.23
2018-09-05T12:33:11.128Z,23.21
2018-09-05T12:35:39.916Z,23.08
2018-09-05T12:38:09.073Z,23.21
2018-09-05T12:40:37.736Z,23.42
2018-09-05T12:43:06.258Z,23.20
2018-09-05T12:45:34.814Z,23.47
2018-09-05T12:48:03.399Z,23.43
2018-09-05T12:50:31.879Z,23.53
2018-09-05T12:53:00.530Z,23.67
2018-09-05T12:55:28.869Z,23.60
2018-09-05T12:57:57.310Z,23.71
2018-09-05T13:00:26.110Z,23.71
2018-09-05T13:02:54.895Z,23.61
2018-09-05T13:05:23.399Z,23.76
2018-09-05T13:07:51.959Z,23.71
2018-09-05T13:10:20.367Z,23.90
2018-09-05T13:12:48.816Z,23.99
2018-09-05T13:15:18.325Z,24.09
2018-09-05T13:17:46.874Z,23.95
2018-09-05T13:20:15.658Z,23.95
2018-09-05T13:22:44.309Z,24.11
2018-09-05T13:25:13.066Z,24.14
2018-09-05T13:27:41.746Z,24.17
2018-09-05T13:30:11.284Z,24.18
2018-09-05T13:32:39.707Z,23.95
2018-09-05T13:35:08.633Z,24.04
2018-09-05T13:37:37.342Z,24.07
2018-09-05T13:40:05.857Z,24.08
2018-09-05T13:42:34.364Z,24.01
2018-09-05T13:45:02.986Z,24.08
2018-09-05T13:47:32.155Z,24.00
2018-09-05T13:50:01.155Z,24.19
2018-09-05T13:52:29.731Z,24.14
2018-09-05T13:54:58.136Z,24.27
2018-09-05T13:57:26.585Z,24.29
2018-09-05T13:59:55.246Z,24.15
2018-09-05T14:02:23.623Z,24.24
2018-09-05T14:04:52.047Z,24.21
2018-09-05T14:07:20.510Z,24.21
2018-09-05T14:09:48.946Z,24.36
2018-09-05T14:12:17.445Z,24.40
2018-09-05T14:14:45.803Z,24.56
2018-09-05T14:17:14.561Z,24.57
2018-09-05T14:19:42.964Z,24.25
2018-09-05T14:22:12.278Z,24.45
2018-09-05T14:24:41.353Z,24.47
2018-09-05T14:27:09.795Z,24.56
2018-09-05T14:29:38.443Z,24.54
2018-09-05T14:32:06.852Z,24.56
2018-09-05T14:34:35.306Z,24.53
2018-09-05T14:37:04.065Z,24.62
2018-09-05T14:39:32.878Z,24.59
2018-09-05T14:42:01.438Z,24.54
2018-09-05T14:44:29.918Z,24.45
2018-09-05T14:46:58.336Z,24.55
2018-09-05T14:49:27.215Z,24.42
2018-09-05T14:51:55.890Z,24.59
2018-09-05T14:54:25.080Z,24.64
2018-09-05T14:56:54.523Z,24.65
2018-09-05T14:59:23.270Z,24.48
2018-09-05T15:01:52.631Z,24.72
2018-09-05T15:04:21.345Z,24.64
2018-09-05T15:06:49.841Z,24.72
2018-09-05T15:09:18.273Z,24.69
2018-09-05T15:11:47.363Z,24.61
2018-09-05T15:14:16.661Z,24.59
2018-09-05T15:16:45.584Z,24.63
2018-09-05T15:19:18.781Z,24.55
2018-09-05T15:21:48.463Z,24.52
2018-09-05T15:24:17.900Z,24.54
2018-09-05T15:26:48.077Z,24.59
2018-09-05T15:29:34.569Z,24.40
2018-09-05T15:32:03.884Z,24.36
2018-09-05T15:34:32.712Z,24.39
2018-09-05T15:37:01.622Z,24.38
2018-09-05T15:39:31.279Z,24.36
2018-09-05T15:42:00.359Z,24.39
2018-09-05T15:44:30.028Z,24.46
2018-09-05T15:46:59.593Z,24.39
2018-09-05T15:49:29.311Z,24.43
2018-09-05T15:51:59.096Z,24.54
2018-09-05T15:54:28.554Z,24.45
2018-09-05T15:56:58.151Z,24.48
2018-09-05T15:59:27.382Z,24.42
2018-09-05T16:01:57.138Z,24.36
2018-09-05T16:04:26.509Z,24.34
2018-09-05T16:06:55.944Z,24.36
2018-09-05T16:09:26.013Z,24.33
2018-09-05T16:11:55.837Z,24.40
2018-09-05T16:14:24.891Z,24.39
2018-09-05T16:16:53.877Z,24.42
2018-09-05T16:19:22.592Z,24.48
2018-09-05T16:21:51.817Z,24.41
2018-09-05T16:24:20.959Z,24.38
2018-09-05T16:26:49.834Z,24.36
2018-09-05T16:29:18.540Z,24.34
2018-09-05T16:31:47.286Z,24.33
2018-09-05T16:34:16.592Z,24.28
2018-09-05T16:36:46.096Z,24.31
2018-09-05T16:39:15.710Z,24.24
2018-09-05T16:41:45.157Z,24.25
2018-09-05T16:44:14.268Z,24.19
2018-09-05T16:46:49.696Z,24.15
2018-09-05T16:49:18.912Z,24.18
2018-09-05T16:51:47.451Z,24.14
2018-09-05T16:54:16.260Z,24.17
2018-09-05T16:56:45.151Z,24.11
2018-09-05T16:59:13.687Z,24.07
2018-09-05T17:01:42.327Z,23.98
2018-09-05T17:04:10.974Z,23.95
2018-09-05T17:06:39.967Z,23.91
2018-09-05T17:09:10.847Z,23.91
2018-09-05T17:11:39.597Z,23.95
2018-09-05T17:14:08.054Z,23.88
2018-09-05T17:16:36.848Z,23.79
2018-09-05T17:19:05.968Z,23.80
2018-09-05T17:21:34.793Z,23.74
2018-09-05T17:24:03.711Z,23.66
2018-09-05T17:26:32.223Z,23.72
2018-09-05T17:29:00.711Z,23.57
2018-09-05T17:31:29.759Z,23.57
2018-09-05T17:33:58.718Z,23.48
2018-09-05T17:36:27.530Z,23.39
2018-09-05T17:38:56.478Z,23.45
2018-09-05T17:41:25.151Z,23.34
2018-09-05T17:43:54.112Z,23.27
2018-09-05T17:46:23.113Z,23.30
2018-09-05T17:48:52.818Z,23.19
2018-09-05T17:51:21.618Z,23.05
2018-09-05T17:53:50.437Z,23.09
2018-09-05T17:56:19.008Z,22.99
2018-09-05T17:58:47.631Z,22.87
2018-09-05T18:01:18.582Z,22.89
2018-09-05T18:03:47.227Z,22.81
2018-09-05T18:06:16.325Z,22.67
2018-09-05T18:08:44.887Z,22.66
2018-09-05T18:11:13.794Z,22.55
2018-09-05T18:13:42.587Z,22.51
2018-09-05T18:16:11.328Z,22.45
2018-09-05T18:18:39.988Z,22.39
2018-09-05T18:21:08.914Z,22.37
2018-09-05T18:23:37.658Z,22.24
2018-09-05T18:26:06.567Z,22.22
2018-09-05T18:28:35.056Z,22.16
2018-09-05T18:31:03.896Z,22.11
2018-09-05T18:33:32.453Z,22.01
2018-09-05T18:36:01.416Z,21.95
2018-09-05T18:38:30.552Z,21.90
2018-09-05T18:40:59.462Z,21.82
2018-09-05T18:43:28.846Z,21.80
2018-09-05T18:45:57.357Z,21.68
2018-09-05T18:48:25.909Z,21.64
2018-09-05T18:50:54.600Z,21.55
2018-09-05T18:53:23.349Z,21.50
2018-09-05T18:55:52.408Z,21.37
2018-09-05T18:58:20.922Z,21.21
2018-09-05T19:00:49.420Z,21.23
2018-09-05T19:03:18.152Z,21.14
2018-09-05T19:05:46.894Z,21.05
2018-09-05T19:08:15.374Z,20.99
2018-09-05T19:10:43.731Z,20.98
2018-09-05T19:13:12.267Z,20.92
2018-09-05T19:15:40.996Z,20.70
2018-09-05T19:18:09.394Z,20.47
2018-09-05T19:20:37.817Z,20.46
2018-09-05T19:23:06.259Z,20.38
2018-09-05T19:25:34.756Z,20.30
2018-09-05T19:28:03.370Z,20.23
2018-09-05T19:30:34.259Z,20.17
2018-09-05T19:33:02.707Z,20.20
2018-09-05T19:35:31.626Z,20.22
2018-09-05T19:38:00.079Z,20.21
2018-09-05T19:40:28.627Z,20.16
2018-09-05T19:42:57.320Z,20.13
2018-09-05T19:45:25.997Z,20.04
2018-09-05T19:47:54.419Z,20.10
2018-09-05T19:50:23.024Z,20.06
2018-09-05T19:52:51.464Z,19.94
2018-09-05T19:55:19.926Z,19.92
2018-09-05T19:57:48.332Z,19.95
2018-09-05T20:00:17.625Z,19.95
2018-09-05T20:02:46.004Z,19.89
2018-09-05T20:05:14.492Z,19.88
2018-09-05T20:07:44.128Z,19.89
2018-09-05T20:10:12.987Z,19.81
2018-09-05T20:12:42.402Z,19.79
2018-09-05T20:15:11.184Z,19.69
2018-09-05T20:17:39.786Z,19.73
2018-09-05T20:20:08.315Z,19.74
2018-09-05T20:22:36.672Z,19.70
2018-09-05T20:25:05.160Z,19.61
2018-09-05T20:27:33.508Z,19.56
2018-09-05T20:30:01.824Z,19.50
2018-09-05T20:32:30.405Z,19.47
2018-09-05T20:34:58.765Z,19.40
2018-09-05T20:37:27.088Z,19.34
2018-09-05T20:39:55.422Z,19.26
2018-09-05T20:42:23.967Z,19.19
2018-09-05T20:44:52.354Z,19.13
2018-09-05T20:47:20.722Z,18.98
2018-09-05T20:49:49.415Z,19.05
2018-09-05T20:52:17.839Z,19.00
2018-09-05T20:54:46.228Z,18.97
2018-09-05T20:57:14.555Z,18.89
2018-09-05T20:59:42.877Z,18.89
2018-09-05T21:02:11.298Z,18.80
2018-09-05T21:04:39.653Z,18.68
2018-09-05T21:07:08.021Z,18.65
2018-09-05T21:09:36.492Z,18.60
2018-09-05T21:12:04.869Z,18.62
2018-09-05T21:14:33.532Z,18.54
2018-09-05T21:17:02.267Z,18.50
2018-09-05T21:19:30.618Z,18.49
2018-09-05T21:21:58.945Z,18.54
2018-09-05T21:24:27.288Z,18.46
2018-09-05T21:26:55.667Z,18.43
2018-09-05T21:29:23.997Z,18.44
2018-09-05T21:31:52.327Z,18.35
2018-09-05T21:34:20.644Z,18.31
2018-09-05T21:36:48.968Z,18.11
2018-09-05T21:39:17.307Z,18.09
2018-09-05T21:41:45.649Z,18.13
2018-09-05T21:44:13.939Z,18.08
2018-09-05T21:46:42.251Z,18.08
2018-09-05T21:49:10.610Z,17.94
2018-09-05T21:51:39.010Z,17.81
2018-09-05T21:54:07.348Z,17.56
2018-09-05T21:56:35.656Z,17.43
2018-09-05T21:59:04.025Z,17.55
2018-09-05T22:01:32.340Z,17.55
2018-09-05T22:04:00.671Z,17.61
2018-09-05T22:06:29.011Z,17.66
2018-09-05T22:08:57.328Z,17.67
2018-09-05T22:11:26.622Z,17.61
2018-09-05T22:13:55.640Z,17.62
2018-09-05T22:16:24.281Z,17.53
2018-09-05T22:18:52.847Z,17.25
2018-09-05T22:21:21.205Z,17.03
2018-09-05T22:23:49.496Z,17.01
2018-09-05T22:26:17.872Z,17.08
2018-09-05T22:28:46.234Z,17.08
2018-09-05T22:31:14.610Z,17.06
2018-09-05T22:33:42.977Z,17.05
2018-09-05T22:36:11.327Z,17.14
2018-09-05T22:38:39.932Z,17.16
2018-09-05T22:41:08.340Z,16.96
2018-09-05T22:43:47.868Z,16.86
2018-09-05T22:46:27.620Z,16.91
2018-09-05T22:51:21.712Z,16.75
2018-09-05T22:54:16.564Z,16.80
2018-09-05T22:57:05.127Z,16.74
2018-09-05T23:00:18.033Z,16.72
2018-09-05T23:05:01.864Z,16.76
2018-09-05T23:08:40.135Z,16.71
2018-09-05T23:11:22.317Z,16.61
2018-09-05T23:14:01.860Z,16.58
2018-09-05T23:16:41.941Z,16.67
2018-09-05T23:19:38.873Z,16.63
2018-09-05T23:22:07.228Z,16.35
2018-09-05T23:24:35.882Z,16.48
2018-09-05T23:27:04.272Z,16.41
2018-09-05T23:29:32.931Z,16.45
2018-09-05T23:32:01.341Z,16.43
2018-09-05T23:34:29.655Z,16.48
2018-09-05T23:36:57.961Z,16.49
2018-09-05T23:39:26.324Z,16.46
2018-09-05T23:41:54.644Z,16.43
2018-09-05T23:44:23.377Z,16.33
2018-09-05T23:46:51.732Z,16.22
2018-09-05T23:49:20.061Z,16.28
2018-09-05T23:51:48.567Z,16.15
2018-09-05T23:54:16.892Z,16.16
2018-09-05T23:56:45.271Z,16.20
2018-09-05T23:59:13.616Z,16.17
